createdAt,value
2018-05-26T00:00:42.338Z,0.00
2018-05-26T00:02:35.407Z,0.00
2018-05-26T00:03:35.374Z,0.00
2018-05-26T00:05:28.296Z,0.00
2018-05-26T00:06:28.205Z,0.00
2018-05-26T00:08:21.338Z,0.00
2018-05-26T00:09:21.344Z,0.00
2018-05-26T00:11:14.443Z,0.00
2018-05-26T00:12:14.383Z,0.00
2018-05-26T00:14:07.378Z,0.00
2018-05-26T00:15:07.319Z,0.00
2018-05-26T00:17:00.292Z,0.00
2018-05-26T00:18:00.253Z,0.00
2018-05-26T00:19:53.117Z,0.00
2018-05-26T00:20:53.063Z,0.00
2018-05-26T00:22:46.042Z,0.00
2018-05-26T00:23:46.005Z,0.00
2018-05-26T00:25:39.085Z,0.00
2018-05-26T00:26:38.983Z,0.00
2018-05-26T00:28:32.218Z,0.00
2018-05-26T00:29:32.081Z,0.00
2018-05-26T00:31:25.075Z,0.00
2018-05-26T00:32:25.035Z,0.00
2018-05-26T00:34:18.028Z,0.00
2018-05-26T00:35:17.975Z,0.00
2018-05-26T00:37:10.810Z,0.00
2018-05-26T00:38:10.811Z,0.00
2018-05-26T00:40:03.778Z,0.00
2018-05-26T00:41:03.733Z,0.00
2018-05-26T00:42:56.711Z,0.00
2018-05-26T00:43:56.678Z,0.00
2018-05-26T00:45:49.768Z,0.00
2018-05-26T00:46:49.737Z,0.00
2018-05-26T00:48:42.723Z,0.00
2018-05-26T00:49:42.669Z,0.00
2018-05-26T00:51:35.660Z,0.00
2018-05-26T00:52:35.639Z,0.00
2018-05-26T00:54:28.749Z,0.00
2018-05-26T00:55:28.714Z,0.00
2018-05-26T00:57:21.726Z,0.00
2018-05-26T00:58:21.668Z,0.00
2018-05-26T01:00:14.670Z,0.00
2018-05-26T01:01:14.620Z,0.00
2018-05-26T01:03:07.454Z,0.00
2018-05-26T01:04:07.440Z,0.00
2018-05-26T01:06:00.465Z,0.00
2018-05-26T01:07:00.384Z,0.00
2018-05-26T01:08:53.364Z,0.00
2018-05-26T01:09:53.369Z,0.00
2018-05-26T01:11:46.531Z,0.00
2018-05-26T01:12:46.438Z,0.00
2018-05-26T01:14:39.585Z,0.00
2018-05-26T01:15:39.560Z,0.00
2018-05-26T01:17:32.734Z,0.00
2018-05-26T01:18:32.672Z,0.00
2018-05-26T01:20:25.673Z,0.00
2018-05-26T01:21:25.633Z,0.00
2018-05-26T01:23:18.919Z,0.00
2018-05-26T01:24:18.862Z,0.00
2018-05-26T01:26:11.673Z,0.00
2018-05-26T01:27:11.629Z,0.00
2018-05-26T01:29:04.644Z,0.00
2018-05-26T01:30:04.630Z,0.00
2018-05-26T01:31:57.855Z,0.00
2018-05-26T01:32:57.729Z,0.00
2018-05-26T01:34:50.691Z,0.00
2018-05-26T01:35:50.655Z,0.00
2018-05-26T01:37:45.601Z,0.00
2018-05-26T01:38:43.591Z,0.00
2018-05-26T01:40:36.405Z,0.00
2018-05-26T01:41:36.391Z,0.00
2018-05-26T01:43:29.360Z,0.00
2018-05-26T01:44:29.301Z,0.00
2018-05-26T01:46:22.115Z,0.00
2018-05-26T01:47:22.107Z,0.00
2018-05-26T01:49:15.075Z,0.00
2018-05-26T01:50:15.042Z,0.00
2018-05-26T01:52:07.995Z,0.00
2018-05-26T01:53:07.945Z,0.00
2018-05-26T01:55:00.942Z,0.00
2018-05-26T01:56:00.893Z,0.00
2018-05-26T01:57:53.924Z,0.00
2018-05-26T01:58:53.870Z,0.00
2018-05-26T02:00:47.302Z,0.00
2018-05-26T02:01:47.022Z,0.00
2018-05-26T02:03:40.037Z,0.00
2018-05-26T02:04:40.015Z,0.00
2018-05-26T02:06:32.789Z,0.00
2018-05-26T02:07:32.757Z,0.00
2018-05-26T02:09:25.592Z,0.00
2018-05-26T02:10:25.534Z,0.00
2018-05-26T02:12:18.627Z,0.00
2018-05-26T02:13:18.580Z,0.00
2018-05-26T02:15:11.560Z,0.00
2018-05-26T02:16:11.528Z,0.00
2018-05-26T02:18:04.749Z,0.00
2018-05-26T02:19:04.705Z,0.00
2018-05-26T02:20:57.675Z,0.00
2018-05-26T02:21:57.682Z,0.00
2018-05-26T02:23:50.645Z,0.00
2018-05-26T02:24:50.587Z,0.00
2018-05-26T02:26:43.595Z,0.00
2018-05-26T02:27:43.551Z,0.00
2018-05-26T02:29:36.653Z,0.00
2018-05-26T02:30:36.538Z,0.00
2018-05-26T02:32:29.686Z,0.00
2018-05-26T02:33:29.669Z,0.00
2018-05-26T02:35:22.475Z,0.00
2018-05-26T02:36:22.426Z,0.00
2018-05-26T02:38:15.436Z,0.00
2018-05-26T02:39:15.372Z,0.00
2018-05-26T02:41:08.183Z,0.00
2018-05-26T02:42:08.158Z,0.00
2018-05-26T02:44:01.328Z,0.00
2018-05-26T02:45:01.262Z,0.00
2018-05-26T02:46:54.237Z,0.00
2018-05-26T02:47:54.201Z,0.00
2018-05-26T02:49:47.552Z,0.00
2018-05-26T02:50:47.354Z,0.00
2018-05-26T02:52:40.342Z,0.00
2018-05-26T02:53:40.302Z,0.00
2018-05-26T02:55:33.291Z,0.00
2018-05-26T02:56:33.247Z,0.00
2018-05-26T02:58:26.183Z,0.00
2018-05-26T02:59:26.057Z,0.00
2018-05-26T03:01:18.929Z,0.00
2018-05-26T03:02:18.817Z,0.00
2018-05-26T03:04:11.818Z,0.00
2018-05-26T03:05:11.767Z,0.00
2018-05-26T03:07:04.775Z,0.00
2018-05-26T03:08:04.739Z,0.00
2018-05-26T03:09:57.582Z,0.00
2018-05-26T03:10:57.518Z,0.00
2018-05-26T03:12:50.548Z,0.00
2018-05-26T03:13:50.507Z,0.00
2018-05-26T03:15:43.330Z,0.00
2018-05-26T03:16:43.283Z,0.00
2018-05-26T03:18:36.268Z,0.00
2018-05-26T03:19:36.233Z,0.00
2018-05-26T03:21:29.324Z,0.00
2018-05-26T03:22:29.079Z,0.00
2018-05-26T03:24:22.103Z,0.00
2018-05-26T03:25:22.062Z,0.00
2018-05-26T03:27:15.103Z,0.00
2018-05-26T03:28:15.034Z,0.00
2018-05-26T03:30:08.219Z,0.00
2018-05-26T03:31:08.145Z,0.00
2018-05-26T03:33:01.128Z,0.00
2018-05-26T03:34:01.078Z,0.00
2018-05-26T03:35:54.089Z,0.00
2018-05-26T03:36:54.044Z,0.00
2018-05-26T03:38:46.865Z,0.00
2018-05-26T03:39:46.840Z,0.00
2018-05-26T03:41:39.824Z,0.00
2018-05-26T03:42:39.775Z,0.00
2018-05-26T03:44:32.759Z,0.00
2018-05-26T03:45:32.784Z,0.00
2018-05-26T03:47:25.892Z,0.00
2018-05-26T03:48:25.815Z,0.00
2018-05-26T03:50:18.788Z,0.00
2018-05-26T03:51:18.759Z,0.00
2018-05-26T03:53:11.730Z,0.00
2018-05-26T03:54:11.682Z,0.00
2018-05-26T03:56:04.537Z,0.00
2018-05-26T03:57:04.479Z,0.00
2018-05-26T03:58:57.429Z,5.63
2018-05-26T03:59:57.405Z,5.63
2018-05-26T04:01:50.392Z,5.63
2018-05-26T04:02:50.358Z,5.63
2018-05-26T04:04:43.177Z,5.63
2018-05-26T04:05:43.179Z,5.63
2018-05-26T04:07:35.977Z,5.63
2018-05-26T04:08:35.913Z,5.63
2018-05-26T04:10:28.908Z,5.63
2018-05-26T04:11:28.868Z,5.63
2018-05-26T04:13:21.883Z,5.63
2018-05-26T04:14:21.833Z,5.63
2018-05-26T04:16:15.080Z,5.63
2018-05-26T04:17:14.943Z,5.63
2018-05-26T04:19:07.973Z,11.25
2018-05-26T04:20:07.926Z,11.25
2018-05-26T04:22:00.902Z,11.25
2018-05-26T04:23:00.865Z,11.25
2018-05-26T04:24:53.723Z,11.25
2018-05-26T04:25:53.674Z,11.25
2018-05-26T04:27:46.648Z,11.25
2018-05-26T04:28:46.606Z,11.25
2018-05-26T04:30:39.603Z,11.25
2018-05-26T04:31:39.625Z,11.25
2018-05-26T04:33:32.794Z,11.25
2018-05-26T04:34:32.738Z,11.25
2018-05-26T04:36:25.575Z,11.25
2018-05-26T04:37:25.526Z,11.25
2018-05-26T04:39:18.510Z,11.25
2018-05-26T04:40:18.469Z,11.25
2018-05-26T04:42:11.714Z,11.25
2018-05-26T04:43:11.603Z,16.88
2018-05-26T04:45:04.613Z,16.88
2018-05-26T04:46:04.579Z,16.88
2018-05-26T04:47:57.420Z,16.88
2018-05-26T04:48:57.390Z,16.88
2018-05-26T04:50:50.529Z,16.88
2018-05-26T04:51:50.485Z,16.88
2018-05-26T04:53:43.460Z,16.88
2018-05-26T04:54:43.411Z,16.88
2018-05-26T04:56:36.396Z,16.88
2018-05-26T04:57:36.404Z,16.88
2018-05-26T04:59:29.336Z,16.88
2018-05-26T05:00:29.177Z,16.88
2018-05-26T05:02:22.158Z,16.88
2018-05-26T05:03:22.125Z,16.88
2018-05-26T05:05:15.137Z,16.88
2018-05-26T05:06:15.081Z,16.88
2018-05-26T05:08:08.221Z,16.88
2018-05-26T05:09:08.174Z,16.88
2018-05-26T05:11:03.102Z,16.88
2018-05-26T05:12:01.104Z,16.88
2018-05-26T05:13:54.497Z,16.88
2018-05-26T05:14:54.304Z,22.50
2018-05-26T05:16:47.286Z,22.50
2018-05-26T05:17:47.256Z,22.50
2018-05-26T05:19:40.243Z,22.50
2018-05-26T05:20:40.195Z,22.50
2018-05-26T05:22:33.030Z,22.50
2018-05-26T05:23:33.001Z,22.50
2018-05-26T05:25:25.971Z,22.50
2018-05-26T05:26:25.789Z,22.50
2018-05-26T05:28:18.593Z,22.50
2018-05-26T05:29:18.571Z,22.50
2018-05-26T05:31:11.403Z,22.50
2018-05-26T05:32:11.366Z,22.50
2018-05-26T05:34:04.340Z,22.50
2018-05-26T05:35:04.287Z,22.50
2018-05-26T05:36:57.478Z,22.50
2018-05-26T05:37:57.423Z,22.50
2018-05-26T05:39:50.426Z,22.50
2018-05-26T05:40:50.462Z,22.50
2018-05-26T05:42:43.406Z,28.13
2018-05-26T05:43:43.362Z,28.13
2018-05-26T05:45:36.382Z,28.13
2018-05-26T05:46:36.329Z,28.13
2018-05-26T05:48:29.342Z,28.13
2018-05-26T05:49:29.337Z,28.13
2018-05-26T05:51:22.534Z,28.13
2018-05-26T05:52:22.426Z,28.13
2018-05-26T05:54:15.421Z,28.13
2018-05-26T05:55:15.376Z,28.13
2018-05-26T05:57:08.426Z,28.13
2018-05-26T05:58:08.364Z,28.13
2018-05-26T06:00:03.332Z,28.13
2018-05-26T06:01:01.357Z,28.13
2018-05-26T06:02:54.343Z,28.13
2018-05-26T06:03:54.283Z,28.13
2018-05-26T06:05:47.388Z,28.13
2018-05-26T06:06:47.339Z,28.13
2018-05-26T06:08:40.378Z,28.13
2018-05-26T06:09:40.298Z,28.13
2018-05-26T06:11:33.134Z,28.13
2018-05-26T06:12:33.079Z,28.13
2018-05-26T06:14:25.899Z,33.75
2018-05-26T06:15:25.927Z,33.75
2018-05-26T06:17:19.083Z,33.75
2018-05-26T06:18:18.973Z,33.75
2018-05-26T06:20:11.963Z,33.75
2018-05-26T06:21:11.940Z,33.75
2018-05-26T06:23:04.928Z,33.75
2018-05-26T06:24:04.901Z,33.75
2018-05-26T06:25:57.742Z,33.75
2018-05-26T06:26:57.704Z,33.75
2018-05-26T06:28:50.702Z,33.75
2018-05-26T06:29:50.658Z,33.75
2018-05-26T06:31:43.696Z,33.75
2018-05-26T06:32:43.629Z,33.75
2018-05-26T06:34:36.918Z,33.75
2018-05-26T06:35:36.880Z,33.75
2018-05-26T06:37:29.884Z,33.75
2018-05-26T06:38:29.834Z,33.75
2018-05-26T06:40:22.988Z,33.75
2018-05-26T06:41:22.959Z,33.75
2018-05-26T06:43:15.939Z,33.75
2018-05-26T06:44:15.896Z,33.75
2018-05-26T06:46:08.883Z,39.38
2018-05-26T06:47:08.847Z,39.38
2018-05-26T06:49:01.915Z,39.38
2018-05-26T06:50:01.856Z,39.38
2018-05-26T06:51:54.844Z,39.38
2018-05-26T06:52:54.805Z,39.38
2018-05-26T06:54:48.065Z,39.38
2018-05-26T06:55:47.914Z,39.38
2018-05-26T06:57:42.880Z,39.38
2018-05-26T06:58:40.875Z,39.38
2018-05-26T07:00:33.837Z,39.38
2018-05-26T07:01:33.810Z,39.38
2018-05-26T07:03:26.964Z,39.38
2018-05-26T07:04:26.914Z,39.38
2018-05-26T07:06:19.739Z,39.38
2018-05-26T07:07:19.714Z,39.38
2018-05-26T07:09:12.575Z,39.38
2018-05-26T07:10:12.493Z,39.38
2018-05-26T07:12:05.615Z,39.38
2018-05-26T07:13:05.582Z,39.38
2018-05-26T07:14:58.570Z,39.38
2018-05-26T07:15:58.520Z,39.38
2018-05-26T07:17:51.519Z,39.38
2018-05-26T07:18:51.470Z,39.38
2018-05-26T07:20:44.718Z,39.38
2018-05-26T07:21:44.606Z,45.00
2018-05-26T07:23:37.455Z,45.00
2018-05-26T07:24:37.453Z,45.00
2018-05-26T07:26:30.219Z,45.00
2018-05-26T07:27:30.187Z,45.00
2018-05-26T07:29:24.719Z,45.00
2018-05-26T07:30:23.016Z,45.00
2018-05-26T07:32:15.807Z,45.00
2018-05-26T07:33:15.767Z,45.00
2018-05-26T07:35:08.799Z,45.00
2018-05-26T07:36:08.746Z,45.00
2018-05-26T07:38:01.764Z,45.00
2018-05-26T07:39:01.700Z,45.00
2018-05-26T07:40:55.016Z,50.63
2018-05-26T07:41:54.946Z,50.63
2018-05-26T07:43:47.966Z,50.63
2018-05-26T07:44:47.921Z,50.63
2018-05-26T07:46:40.880Z,50.63
2018-05-26T07:47:40.857Z,50.63
2018-05-26T07:49:33.881Z,50.63
2018-05-26T07:50:33.816Z,50.63
2018-05-26T07:52:26.825Z,50.63
2018-05-26T07:53:26.812Z,50.63
2018-05-26T07:55:19.633Z,50.63
2018-05-26T07:56:19.586Z,50.63
2018-05-26T07:58:12.707Z,56.25
2018-05-26T07:59:12.683Z,56.25
2018-05-26T08:01:05.690Z,56.25
2018-05-26T08:02:05.641Z,56.25
2018-05-26T08:03:58.627Z,56.25
2018-05-26T08:04:58.595Z,56.25
2018-05-26T08:06:51.503Z,56.25
2018-05-26T08:07:51.415Z,56.25
2018-05-26T08:09:44.415Z,56.25
2018-05-26T08:10:44.347Z,56.25
2018-05-26T08:12:37.336Z,56.25
2018-05-26T08:13:37.305Z,56.25
2018-05-26T08:15:30.266Z,56.25
2018-05-26T08:16:30.210Z,61.88
2018-05-26T08:18:23.181Z,61.88
2018-05-26T08:19:23.159Z,61.88
2018-05-26T08:21:18.238Z,61.88
2018-05-26T08:22:16.119Z,61.88
2018-05-26T08:24:09.289Z,61.88
2018-05-26T08:25:09.226Z,61.88
2018-05-26T08:27:02.223Z,61.88
2018-05-26T08:28:02.172Z,61.88
2018-05-26T08:29:55.167Z,61.88
2018-05-26T08:30:55.120Z,61.88
2018-05-26T08:32:47.952Z,67.50
2018-05-26T08:33:47.991Z,67.50
2018-05-26T08:35:40.919Z,67.50
2018-05-26T08:36:40.883Z,67.50
2018-05-26T08:38:33.867Z,67.50
2018-05-26T08:39:33.843Z,67.50
2018-05-26T08:41:28.002Z,67.50
2018-05-26T08:42:27.957Z,67.50
2018-05-26T08:44:20.844Z,67.50
2018-05-26T08:45:20.813Z,67.50
2018-05-26T08:47:13.668Z,67.50
2018-05-26T08:48:13.619Z,67.50
2018-05-26T08:50:06.818Z,67.50
2018-05-26T08:51:06.730Z,67.50
2018-05-26T08:52:59.728Z,67.50
2018-05-26T08:53:59.682Z,67.50
2018-05-26T08:55:52.562Z,67.50
2018-05-26T08:56:52.584Z,67.50
2018-05-26T08:58:45.736Z,67.50
2018-05-26T08:59:45.628Z,67.50
2018-05-26T09:01:38.644Z,67.50
2018-05-26T09:02:38.587Z,67.50
2018-05-26T09:04:31.590Z,67.50
2018-05-26T09:05:31.559Z,67.50
2018-05-26T09:07:24.582Z,67.50
2018-05-26T09:08:24.520Z,67.50
2018-05-26T09:10:17.491Z,73.13
2018-05-26T09:11:17.540Z,73.13
2018-05-26T09:13:10.312Z,73.13
2018-05-26T09:14:10.272Z,73.13
2018-05-26T09:16:03.099Z,56.25
2018-05-26T09:17:03.069Z,56.25
2018-05-26T09:18:56.080Z,61.88
2018-05-26T09:19:56.035Z,61.88
2018-05-26T09:21:49.078Z,61.88
2018-05-26T09:22:49.106Z,61.88
2018-05-26T09:24:42.125Z,61.88
2018-05-26T09:25:42.092Z,61.88
2018-05-26T09:27:35.094Z,61.88
2018-05-26T09:28:35.054Z,67.50
2018-05-26T09:30:28.090Z,67.50
2018-05-26T09:31:28.069Z,67.50
2018-05-26T09:33:20.904Z,67.50
2018-05-26T09:34:20.868Z,67.50
2018-05-26T09:36:13.889Z,73.13
2018-05-26T09:37:13.861Z,73.13
2018-05-26T09:39:06.904Z,73.13
2018-05-26T09:40:06.894Z,73.13
2018-05-26T09:41:59.696Z,73.13
2018-05-26T09:42:59.670Z,73.13
2018-05-26T09:44:52.708Z,73.13
2018-05-26T09:45:52.639Z,73.13
2018-05-26T09:47:45.621Z,78.75
2018-05-26T09:48:45.639Z,78.75
2018-05-26T09:50:38.755Z,84.38
2018-05-26T09:51:38.713Z,90.00
2018-05-26T09:53:31.711Z,168.75
2018-05-26T09:54:31.664Z,275.63
2018-05-26T09:56:24.505Z,388.13
2018-05-26T09:57:24.508Z,427.50
2018-05-26T09:59:17.700Z,433.13
2018-05-26T10:00:17.627Z,433.13
2018-05-26T10:02:10.620Z,433.13
2018-05-26T10:03:10.591Z,433.13
2018-05-26T10:05:03.915Z,438.75
2018-05-26T10:06:03.774Z,444.38
2018-05-26T10:07:56.760Z,438.75
2018-05-26T10:08:56.761Z,450.00
2018-05-26T10:10:49.771Z,444.38
2018-05-26T10:11:49.728Z,444.38
2018-05-26T10:13:42.707Z,450.00
2018-05-26T10:14:42.551Z,461.25
2018-05-26T10:16:37.505Z,455.63
2018-05-26T10:17:35.544Z,438.75
2018-05-26T10:19:28.568Z,450.00
2018-05-26T10:20:28.520Z,450.00
2018-05-26T10:22:21.658Z,450.00
2018-05-26T10:23:21.641Z,450.00
2018-05-26T10:25:14.670Z,450.00
2018-05-26T10:26:14.675Z,450.00
2018-05-26T10:28:07.829Z,461.25
2018-05-26T10:29:07.821Z,455.63
2018-05-26T10:31:00.821Z,455.63
2018-05-26T10:32:00.852Z,461.25
2018-05-26T10:33:53.696Z,455.63
2018-05-26T10:34:53.682Z,455.63
2018-05-26T10:36:46.701Z,461.25
2018-05-26T10:37:46.525Z,455.63
2018-05-26T10:39:39.574Z,466.88
2018-05-26T10:40:39.517Z,466.88
2018-05-26T10:42:32.362Z,461.25
2018-05-26T10:43:32.391Z,438.75
2018-05-26T10:45:26.822Z,444.38
2018-05-26T10:46:25.191Z,455.63
2018-05-26T10:48:18.023Z,455.63
2018-05-26T10:49:18.001Z,455.63
2018-05-26T10:51:11.051Z,455.63
2018-05-26T10:52:11.011Z,455.63
2018-05-26T10:54:03.848Z,455.63
2018-05-26T10:55:03.862Z,455.63
2018-05-26T10:56:57.044Z,450.00
2018-05-26T10:57:56.993Z,450.00
2018-05-26T10:59:50.426Z,433.13
2018-05-26T11:00:50.002Z,427.50
2018-05-26T11:02:43.293Z,421.88
2018-05-26T11:03:43.266Z,438.75
2018-05-26T11:05:36.142Z,444.38
2018-05-26T11:06:36.103Z,444.38
2018-05-26T11:08:29.124Z,450.00
2018-05-26T11:09:29.099Z,450.00
2018-05-26T11:11:22.183Z,450.00
2018-05-26T11:12:22.159Z,444.38
2018-05-26T11:14:15.177Z,427.50
2018-05-26T11:15:15.187Z,410.63
2018-05-26T11:17:13.618Z,416.25
2018-05-26T11:18:08.327Z,433.13
2018-05-26T11:20:01.327Z,450.00
2018-05-26T11:21:01.383Z,450.00
2018-05-26T11:22:54.658Z,444.38
2018-05-26T11:23:54.594Z,438.75
2018-05-26T11:25:47.494Z,444.38
2018-05-26T11:26:47.463Z,438.75
2018-05-26T11:28:40.477Z,450.00
2018-05-26T11:29:40.470Z,433.13
2018-05-26T11:31:33.497Z,433.13
2018-05-26T11:32:33.462Z,416.25
2018-05-26T11:34:26.471Z,433.13
2018-05-26T11:35:26.478Z,455.63
2018-05-26T11:37:19.769Z,466.88
2018-05-26T11:38:19.613Z,466.88
2018-05-26T11:40:12.628Z,461.25
2018-05-26T11:41:12.609Z,461.25
2018-05-26T11:43:05.483Z,461.25
2018-05-26T11:44:05.437Z,466.88
2018-05-26T11:45:58.324Z,466.88
2018-05-26T11:46:58.307Z,472.50
2018-05-26T11:48:51.338Z,478.13
2018-05-26T11:49:51.310Z,478.13
2018-05-26T11:51:44.319Z,472.50
2018-05-26T11:52:44.299Z,461.25
2018-05-26T11:54:37.422Z,450.00
2018-05-26T11:55:37.387Z,438.75
2018-05-26T11:57:30.453Z,444.38
2018-05-26T11:58:30.456Z,427.50
2018-05-26T12:00:23.590Z,444.38
2018-05-26T12:01:23.560Z,438.75
2018-05-26T12:03:16.594Z,444.38
2018-05-26T12:04:16.615Z,450.00
2018-05-26T12:06:09.418Z,438.75
2018-05-26T12:07:09.383Z,433.13
2018-05-26T12:09:02.503Z,438.75
2018-05-26T12:10:02.307Z,421.88
2018-05-26T12:11:55.315Z,410.63
2018-05-26T12:12:55.289Z,410.63
2018-05-26T12:14:50.263Z,421.88
2018-05-26T12:15:48.275Z,421.88
2018-05-26T12:17:41.399Z,427.50
2018-05-26T12:18:41.155Z,433.13
2018-05-26T12:20:34.005Z,438.75
2018-05-26T12:21:33.986Z,438.75
2018-05-26T12:23:27.069Z,438.75
2018-05-26T12:24:27.035Z,416.25
2018-05-26T12:26:20.000Z,438.75
2018-05-26T12:27:19.993Z,438.75
2018-05-26T12:29:13.004Z,427.50
2018-05-26T12:30:12.990Z,427.50
2018-05-26T12:32:05.974Z,427.50
2018-05-26T12:33:05.974Z,421.88
2018-05-26T12:34:58.963Z,421.88
2018-05-26T12:35:58.799Z,421.88
2018-05-26T12:37:51.811Z,421.88
2018-05-26T12:38:51.810Z,421.88
2018-05-26T12:40:44.890Z,427.50
2018-05-26T12:41:44.862Z,427.50
2018-05-26T12:43:37.916Z,427.50
2018-05-26T12:44:37.874Z,421.88
2018-05-26T12:46:31.454Z,410.63
2018-05-26T12:47:30.715Z,410.63
2018-05-26T12:49:23.751Z,405.00
2018-05-26T12:50:23.716Z,399.38
2018-05-26T12:52:16.727Z,376.88
2018-05-26T12:53:16.570Z,376.88
2018-05-26T12:55:09.579Z,382.50
2018-05-26T12:56:09.549Z,371.25
2018-05-26T12:58:02.551Z,371.25
2018-05-26T12:59:02.541Z,371.25
2018-05-26T13:01:01.031Z,371.25
2018-05-26T13:01:55.480Z,371.25
2018-05-26T13:03:48.522Z,371.25
2018-05-26T13:04:48.476Z,365.63
2018-05-26T13:06:41.507Z,343.13
2018-05-26T13:07:41.474Z,348.75
2018-05-26T13:09:34.501Z,348.75
2018-05-26T13:10:34.465Z,337.50
2018-05-26T13:12:27.480Z,326.25
2018-05-26T13:13:27.554Z,315.00
2018-05-26T13:15:20.331Z,320.63
2018-05-26T13:16:20.302Z,326.25
2018-05-26T13:18:13.318Z,326.25
2018-05-26T13:19:13.303Z,315.00
2018-05-26T13:21:06.355Z,309.38
2018-05-26T13:22:06.326Z,315.00
2018-05-26T13:23:59.550Z,292.50
2018-05-26T13:24:59.515Z,303.75
2018-05-26T13:26:52.381Z,292.50
2018-05-26T13:27:52.356Z,303.75
2018-05-26T13:29:45.470Z,303.75
2018-05-26T13:30:45.392Z,292.50
2018-05-26T13:32:38.416Z,270.00
2018-05-26T13:33:38.375Z,264.38
2018-05-26T13:35:31.227Z,258.75
2018-05-26T13:36:31.208Z,258.75
2018-05-26T13:38:24.229Z,264.38
2018-05-26T13:39:24.204Z,258.75
2018-05-26T13:41:17.282Z,241.88
2018-05-26T13:42:17.246Z,230.63
2018-05-26T13:44:10.262Z,230.63
2018-05-26T13:45:10.238Z,258.75
2018-05-26T13:47:03.505Z,258.75
2018-05-26T13:48:03.428Z,253.13
2018-05-26T13:49:56.581Z,230.63
2018-05-26T13:50:56.424Z,258.75
2018-05-26T13:52:52.992Z,286.88
2018-05-26T13:53:49.658Z,275.63
2018-05-26T13:55:43.278Z,298.13
2018-05-26T13:56:42.599Z,298.13
2018-05-26T13:58:37.555Z,303.75
2018-05-26T13:59:35.632Z,303.75
2018-05-26T14:01:28.589Z,303.75
2018-05-26T14:02:28.603Z,303.75
2018-05-26T14:04:21.631Z,303.75
2018-05-26T14:05:21.722Z,303.75
2018-05-26T14:07:14.805Z,292.50
2018-05-26T14:08:14.656Z,292.50
2018-05-26T14:10:07.639Z,298.13
2018-05-26T14:11:07.606Z,292.50
2018-05-26T14:13:01.113Z,286.88
2018-05-26T14:14:00.601Z,281.25
2018-05-26T14:15:53.557Z,281.25
2018-05-26T14:16:53.482Z,281.25
2018-05-26T14:18:46.376Z,264.38
2018-05-26T14:19:46.323Z,225.00
2018-05-26T14:21:39.337Z,230.63
2018-05-26T14:22:39.328Z,219.38
2018-05-26T14:24:32.528Z,219.38
2018-05-26T14:25:32.459Z,264.38
2018-05-26T14:27:25.446Z,275.63
2018-05-26T14:28:25.424Z,275.63
2018-05-26T14:30:18.733Z,281.25
2018-05-26T14:31:18.572Z,275.63
2018-05-26T14:33:11.640Z,275.63
2018-05-26T14:34:11.608Z,264.38
2018-05-26T14:36:05.052Z,236.25
2018-05-26T14:37:04.492Z,264.38
2018-05-26T14:38:57.323Z,292.50
2018-05-26T14:39:57.288Z,286.88
2018-05-26T14:41:50.291Z,275.63
2018-05-26T14:42:50.294Z,275.63
2018-05-26T14:44:43.147Z,270.00
2018-05-26T14:45:43.099Z,264.38
2018-05-26T14:47:35.936Z,275.63
2018-05-26T14:48:35.930Z,275.63
2018-05-26T14:50:28.803Z,281.25
2018-05-26T14:51:28.740Z,281.25
2018-05-26T14:53:21.759Z,275.63
2018-05-26T14:54:21.748Z,208.13
2018-05-26T14:56:14.780Z,208.13
2018-05-26T14:57:14.745Z,208.13
2018-05-26T14:59:09.197Z,213.75
2018-05-26T15:00:07.864Z,225.00
2018-05-26T15:02:01.043Z,213.75
2018-05-26T15:03:01.015Z,219.38
2018-05-26T15:04:53.945Z,219.38
2018-05-26T15:05:53.909Z,219.38
2018-05-26T15:07:46.941Z,225.00
2018-05-26T15:08:46.915Z,225.00
2018-05-26T15:10:39.963Z,230.63
2018-05-26T15:11:39.917Z,230.63
2018-05-26T15:13:32.808Z,225.00
2018-05-26T15:14:32.780Z,236.25
2018-05-26T15:16:25.712Z,236.25
2018-05-26T15:17:25.629Z,236.25
2018-05-26T15:19:18.608Z,241.88
2018-05-26T15:20:18.585Z,241.88
2018-05-26T15:22:11.876Z,225.00
2018-05-26T15:23:11.726Z,230.63
2018-05-26T15:25:15.690Z,230.63
2018-05-26T15:26:04.787Z,236.25
2018-05-26T15:27:57.754Z,236.25
2018-05-26T15:28:57.742Z,236.25
2018-05-26T15:30:50.779Z,241.88
2018-05-26T15:31:50.743Z,241.88
2018-05-26T15:33:43.742Z,247.50
2018-05-26T15:34:43.734Z,247.50
2018-05-26T15:36:36.896Z,247.50
2018-05-26T15:37:36.874Z,253.13
2018-05-26T15:39:29.875Z,247.50
2018-05-26T15:40:29.854Z,247.50
2018-05-26T15:42:22.887Z,247.50
2018-05-26T15:43:22.829Z,247.50
2018-05-26T15:45:15.910Z,247.50
2018-05-26T15:46:15.865Z,247.50
2018-05-26T15:48:08.920Z,253.13
2018-05-26T15:49:08.871Z,253.13
2018-05-26T15:51:02.096Z,253.13
2018-05-26T15:52:02.021Z,247.50
2018-05-26T15:53:55.029Z,253.13
2018-05-26T15:54:55.011Z,253.13
2018-05-26T15:56:48.258Z,253.13
2018-05-26T15:57:48.171Z,253.13
2018-05-26T15:59:41.155Z,258.75
2018-05-26T16:00:41.136Z,253.13
2018-05-26T16:02:34.140Z,247.50
2018-05-26T16:03:34.121Z,253.13
2018-05-26T16:05:27.145Z,247.50
2018-05-26T16:06:26.946Z,247.50
2018-05-26T16:08:21.447Z,253.13
2018-05-26T16:09:19.771Z,247.50
2018-05-26T16:11:12.770Z,247.50
2018-05-26T16:12:12.748Z,247.50
2018-05-26T16:14:05.972Z,253.13
2018-05-26T16:15:05.858Z,247.50
2018-05-26T16:16:58.856Z,247.50
2018-05-26T16:17:58.846Z,247.50
2018-05-26T16:19:52.044Z,241.88
2018-05-26T16:20:51.978Z,241.88
2018-05-26T16:22:44.984Z,236.25
2018-05-26T16:23:44.952Z,236.25
2018-05-26T16:25:37.971Z,225.00
2018-05-26T16:26:37.922Z,225.00
2018-05-26T16:28:30.888Z,213.75
2018-05-26T16:29:30.913Z,146.25
2018-05-26T16:31:23.850Z,208.13
2018-05-26T16:32:23.817Z,202.50
2018-05-26T16:34:16.834Z,196.88
2018-05-26T16:35:16.797Z,196.88
2018-05-26T16:37:09.732Z,191.25
2018-05-26T16:38:09.699Z,191.25
2018-05-26T16:40:02.737Z,191.25
2018-05-26T16:41:02.691Z,191.25
2018-05-26T16:42:56.577Z,191.25
2018-05-26T16:43:56.541Z,185.63
2018-05-26T16:45:49.395Z,180.00
2018-05-26T16:46:49.374Z,174.38
2018-05-26T16:48:42.413Z,163.13
2018-05-26T16:49:42.364Z,163.13
2018-05-26T16:51:35.372Z,157.50
2018-05-26T16:52:35.351Z,157.50
2018-05-26T16:54:28.593Z,151.88
2018-05-26T16:55:28.463Z,101.25
2018-05-26T16:57:21.474Z,135.00
2018-05-26T16:58:21.443Z,140.63
2018-05-26T17:00:14.488Z,140.63
2018-05-26T17:01:14.453Z,106.88
2018-05-26T17:03:07.468Z,61.88
2018-05-26T17:04:07.449Z,101.25
2018-05-26T17:06:00.463Z,123.75
2018-05-26T17:07:00.517Z,123.75
2018-05-26T17:08:53.714Z,118.13
2018-05-26T17:09:53.571Z,112.50
2018-05-26T17:11:46.533Z,101.25
2018-05-26T17:12:46.505Z,45.00
2018-05-26T17:14:39.534Z,50.63
2018-05-26T17:15:39.479Z,61.88
2018-05-26T17:17:32.361Z,73.13
2018-05-26T17:18:32.334Z,78.75
2018-05-26T17:20:25.335Z,45.00
2018-05-26T17:21:25.290Z,84.38
2018-05-26T17:23:18.277Z,73.13
2018-05-26T17:24:18.263Z,45.00
2018-05-26T17:26:11.193Z,39.38
2018-05-26T17:27:11.162Z,56.25
2018-05-26T17:29:04.173Z,28.13
2018-05-26T17:30:04.167Z,28.13
2018-05-26T17:31:57.242Z,28.13
2018-05-26T17:32:57.154Z,28.13
2018-05-26T17:34:50.087Z,22.50
2018-05-26T17:35:50.013Z,22.50
2018-05-26T17:37:43.021Z,22.50
2018-05-26T17:38:42.973Z,22.50
2018-05-26T17:40:37.459Z,22.50
2018-05-26T17:41:35.944Z,22.50
2018-05-26T17:43:29.179Z,22.50
2018-05-26T17:44:29.109Z,28.13
2018-05-26T17:46:23.607Z,28.13
2018-05-26T17:47:21.905Z,28.13
2018-05-26T17:49:14.940Z,22.50
2018-05-26T17:50:14.913Z,22.50
2018-05-26T17:52:07.988Z,22.50
2018-05-26T17:53:07.932Z,22.50
2018-05-26T17:55:00.766Z,22.50
2018-05-26T17:56:00.746Z,22.50
2018-05-26T17:57:54.695Z,39.38
2018-05-26T17:58:54.646Z,33.75
2018-05-26T18:00:47.495Z,28.13
2018-05-26T18:01:47.448Z,39.38
2018-05-26T18:03:40.440Z,39.38
2018-05-26T18:04:40.427Z,33.75
2018-05-26T18:06:33.421Z,22.50
2018-05-26T18:07:33.430Z,22.50
2018-05-26T18:09:26.675Z,22.50
2018-05-26T18:10:26.520Z,22.50
2018-05-26T18:12:20.971Z,22.50
2018-05-26T18:13:19.494Z,22.50
2018-05-26T18:15:13.002Z,22.50
2018-05-26T18:16:12.486Z,22.50
2018-05-26T18:18:05.532Z,22.50
2018-05-26T18:19:05.467Z,22.50
2018-05-26T18:20:58.477Z,16.88
2018-05-26T18:21:58.512Z,16.88
2018-05-26T18:23:51.308Z,11.25
2018-05-26T18:24:51.257Z,11.25
2018-05-26T18:26:44.410Z,11.25
2018-05-26T18:27:44.334Z,11.25